Time;durP1;ratioP1;P1;durP2;ratioP2;P2;SDS_P1;SDS_P2;PMS_P1;PMS_P2;Temp;Humidity;BMP_temperature;BMP_pressure;BME280_temperature;BME280_humidity;BME280_pressure;Samples;Min_cycle;Max_cycle;Signal;HPM_P1;HPM_P2
2021/12/23 00:00:06;;;;;;;136.50;94.20;;;;;;;-5.80;77.88;98712.05;106315;1321;22492;-58
2021/12/23 00:03:06;;;;;;;153.20;101.90;;;;;;;-5.72;77.80;98709.02;106355;1319;22442;-60
2021/12/23 00:05:45;;;;;;;149.60;100.80;;;;;;;-5.66;77.94;98701.88;106292;1315;23217;-59
2021/12/23 00:08:20;;;;;;;132.30;93.80;;;;;;;-5.61;77.87;98700.88;106166;1323;138605;-59
2021/12/23 00:10:53;;;;;;;135.40;95.10;;;;;;;-5.56;78.08;98701.34;106275;1323;22601;-60
2021/12/23 00:13:23;;;;;;;139.20;94.90;;;;;;;-5.55;77.79;98695.98;106256;1319;22401;-59
2021/12/23 00:24:00;;;;;;;135.70;92.50;;;;;;;-5.50;77.92;98682.27;106313;1318;22513;-60
2021/12/23 00:26:29;;;;;;;135.40;90.00;;;;;;;-5.51;77.85;98680.81;106282;1321;22571;-61
2021/12/23 00:28:58;;;;;;;114.20;84.40;;;;;;;-5.48;77.93;98676.49;106281;1322;22445;-60
2021/12/23 00:31:26;;;;;;;113.60;84.80;;;;;;;-5.42;77.84;98672.02;106285;1322;22505;-60
2021/12/23 00:33:54;;;;;;;119.60;86.80;;;;;;;-5.39;77.83;98671.41;106294;1322;22403;-60
2021/12/23 00:36:23;;;;;;;123.00;86.20;;;;;;;-5.31;77.93;98673.54;106287;1316;23280;-60
2021/12/23 00:38:55;;;;;;;118.70;87.10;;;;;;;-5.27;78.09;98674.63;106177;1323;138064;-60
2021/12/23 00:41:29;;;;;;;122.30;86.60;;;;;;;-5.25;77.94;98668.88;106321;1323;22271;-59
2021/12/23 00:43:58;;;;;;;126.50;88.20;;;;;;;-5.25;77.92;98669.40;106273;1321;22254;-60
2021/12/23 00:46:27;;;;;;;130.20;89.40;;;;;;;-5.26;77.80;98666.43;106307;1317;22777;-60
2021/12/23 00:48:56;;;;;;;144.90;92.00;;;;;;;-5.32;77.50;98663.80;106175;1323;22677;-59
2021/12/23 00:51:25;;;;;;;127.40;90.00;;;;;;;-5.40;77.56;98660.91;106252;1316;22513;-60
2021/12/23 00:54:02;;;;;;;135.30;90.80;;;;;;;-5.46;77.57;98661.78;106256;1319;22379;-59
2021/12/23 00:56:35;;;;;;;125.60;85.90;;;;;;;-5.49;77.90;98661.38;106309;1319;23367;-58
2021/12/23 00:59:07;;;;;;;115.90;80.70;;;;;;;-5.48;77.86;98659.30;106291;1323;22617;-59
2021/12/23 01:01:36;;;;;;;125.70;88.60;;;;;;;-5.42;77.84;98659.42;106338;1323;22272;-59
2021/12/23 01:04:05;;;;;;;135.90;93.90;;;;;;;-5.39;77.88;98656.73;106333;1323;22394;-59
2021/12/23 01:06:33;;;;;;;132.40;89.30;;;;;;;-5.36;77.93;98660.58;106316;1323;22462;-59
2021/12/23 01:09:01;;;;;;;146.80;95.60;;;;;;;-5.33;77.98;98657.30;106304;1323;22613;-59
2021/12/23 01:11:29;;;;;;;138.40;94.50;;;;;;;-5.34;77.85;98650.02;106356;1323;22491;-59
2021/12/23 01:14:04;;;;;;;149.80;99.70;;;;;;;-5.35;77.91;98649.94;106285;1323;22460;-60
2021/12/23 01:16:49;;;;;;;;;;;;;;;-5.37;77.75;98648.10;106329;1323;22596;-60
2021/12/23 01:19:18;;;;;;;136.00;95.80;;;;;;;-5.46;77.58;98646.97;106313;1323;22547;-60
2021/12/23 01:21:46;;;;;;;147.20;99.30;;;;;;;-5.56;77.37;98648.55;106315;1323;23251;-60
2021/12/23 01:24:14;;;;;;;179.70;131.60;;;;;;;-5.66;77.31;98647.64;106331;1322;22495;-60
2021/12/23 01:26:42;;;;;;;106.30;82.10;;;;;;;-5.77;77.16;98648.98;106322;1323;22597;-60
2021/12/23 01:29:10;;;;;;;109.80;81.70;;;;;;;-5.86;76.92;98650.38;106323;1323;22402;-60
2021/12/23 01:31:39;;;;;;;120.80;86.30;;;;;;;-5.92;76.99;98649.73;106342;1323;23015;-60
2021/12/23 01:34:07;;;;;;;138.40;98.30;;;;;;;-5.96;77.19;98647.35;106331;1323;22451;-60
2021/12/23 01:36:35;;;;;;;160.30;103.30;;;;;;;-5.97;77.40;98644.61;106303;1323;22492;-61
2021/12/23 01:39:03;;;;;;;181.00;114.00;;;;;;;-5.99;77.21;98641.61;106306;1323;22494;-61
2021/12/23 01:41:32;;;;;;;154.50;102.60;;;;;;;-6.06;76.96;98636.80;106343;1323;22479;-61
2021/12/23 01:44:00;;;;;;;115.90;85.40;;;;;;;-6.17;76.92;98636.08;106332;1323;22587;-62
2021/12/23 01:46:28;;;;;;;123.30;88.10;;;;;;;-6.31;76.60;98625.96;106304;1323;22490;-61
2021/12/23 01:48:57;;;;;;;143.30;100.00;;;;;;;-6.45;76.67;98625.08;106376;1323;23286;-61
2021/12/23 01:51:25;;;;;;;136.10;95.90;;;;;;;-6.61;76.52;98619.52;105936;1323;541276;-61
2021/12/23 01:53:53;;;;;;;187.70;131.90;;;;;;;-6.78;76.64;98617.77;106349;1323;22495;-61
2021/12/23 01:56:24;;;;;;;136.70;92.60;;;;;;;-6.91;76.77;98612.67;106308;1323;22257;-61
2021/12/23 01:58:53;;;;;;;123.50;85.40;;;;;;;-6.99;76.63;98606.48;106346;1323;22411;-61
2021/12/23 02:01:22;;;;;;;100.00;78.50;;;;;;;-7.08;76.65;98600.85;106190;1323;22457;-61
2021/12/23 02:03:50;;;;;;;103.30;82.50;;;;;;;-7.11;76.66;98599.94;106369;1322;22421;-61
2021/12/23 02:06:18;;;;;;;94.20;74.60;;;;;;;-7.20;76.39;98599.31;106326;1323;23416;-61
2021/12/23 02:08:46;;;;;;;82.80;70.90;;;;;;;-7.25;76.37;98598.99;106297;1323;22539;-61
2021/12/23 02:11:14;;;;;;;84.70;73.90;;;;;;;-7.25;76.58;98596.25;106256;1323;23226;-61
2021/12/23 02:13:42;;;;;;;82.80;73.50;;;;;;;-7.16;77.13;98592.23;106313;1323;22984;-61
2021/12/23 02:16:10;;;;;;;90.40;73.30;;;;;;;-7.09;77.16;98587.63;106337;1323;22465;-61
2021/12/23 02:18:39;;;;;;;84.30;75.10;;;;;;;-7.00;77.18;98581.23;106315;1322;23204;-60
2021/12/23 02:21:07;;;;;;;84.00;74.20;;;;;;;-6.93;77.20;98580.29;106349;1323;22486;-60
2021/12/23 02:23:36;;;;;;;95.80;80.10;;;;;;;-6.90;77.01;98574.39;106311;1323;22563;-60
2021/12/23 02:26:04;;;;;;;107.50;83.30;;;;;;;-6.93;76.75;98573.52;106374;1323;22381;-60
2021/12/23 02:28:33;;;;;;;103.90;83.20;;;;;;;-6.99;76.57;98569.61;106325;1323;22812;-61
2021/12/23 02:31:02;;;;;;;102.50;82.30;;;;;;;-7.05;76.72;98570.77;106311;1323;22379;-61
2021/12/23 02:33:30;;;;;;;106.10;84.30;;;;;;;-7.14;76.81;98568.32;106228;1323;23420;-61
2021/12/23 02:35:58;;;;;;;111.30;84.40;;;;;;;-7.27;76.46;98564.52;106341;1323;22470;-60
2021/12/23 02:38:27;;;;;;;101.30;84.40;;;;;;;-7.41;76.50;98562.38;106297;1323;22582;-61
2021/12/23 02:40:55;;;;;;;91.30;80.10;;;;;;;-7.54;76.59;98555.92;106341;1323;22533;-60
2021/12/23 02:43:26;;;;;;;96.00;81.80;;;;;;;-7.65;76.50;98550.36;106346;1323;23164;-60
2021/12/23 02:45:57;;;;;;;89.40;74.80;;;;;;;-7.77;76.43;98547.92;106257;1323;22360;-61
2021/12/23 02:48:30;;;;;;;80.40;71.50;;;;;;;-7.84;76.54;98550.77;106342;1322;23541;-61
2021/12/23 02:51:00;;;;;;;77.50;67.20;;;;;;;-7.85;76.59;98544.33;106319;1323;22579;-61
2021/12/23 02:53:28;;;;;;;79.60;66.90;;;;;;;-7.89;76.58;98537.34;106356;1320;22463;-61
2021/12/23 02:55:58;;;;;;;76.60;67.90;;;;;;;-7.86;76.28;98541.23;106337;1318;22475;-61
2021/12/23 02:58:27;;;;;;;71.30;63.90;;;;;;;-7.89;76.42;98541.23;106242;1316;22499;-61
2021/12/23 03:00:58;;;;;;;74.80;66.90;;;;;;;-7.94;76.35;98533.85;106319;1322;22520;-61
2021/12/23 03:03:26;;;;;;;71.40;63.90;;;;;;;-7.91;76.58;98531.33;106320;1323;22717;-61
2021/12/23 03:05:57;;;;;;;73.80;65.40;;;;;;;-7.86;76.67;98527.08;106333;1323;22517;-61
2021/12/23 03:08:30;;;;;;;102.90;84.80;;;;;;;-7.77;76.89;98525.98;106289;1323;22442;-61
2021/12/23 03:10:59;;;;;;;73.10;65.70;;;;;;;-7.70;76.58;98521.59;106270;1323;22721;-61
2021/12/23 03:13:27;;;;;;;69.70;62.00;;;;;;;-7.69;76.48;98524.39;106274;1323;22588;-61
2021/12/23 03:15:55;;;;;;;69.80;62.50;;;;;;;-7.68;76.64;98527.27;106279;1323;22979;-61
2021/12/23 03:18:24;;;;;;;72.90;65.20;;;;;;;-7.66;76.53;98519.55;106324;1323;23290;-61
2021/12/23 03:20:53;;;;;;;75.30;67.50;;;;;;;-7.65;76.55;98516.48;106332;1323;23183;-61
2021/12/23 03:23:22;;;;;;;75.60;67.40;;;;;;;-7.67;76.58;98514.81;106133;1323;22512;-60
2021/12/23 03:25:50;;;;;;;82.90;73.90;;;;;;;-7.69;76.47;98515.14;106342;1323;23176;-61
2021/12/23 03:28:19;;;;;;;80.20;71.20;;;;;;;-7.71;76.63;98510.11;106249;1323;22291;-61
2021/12/23 03:30:47;;;;;;;91.50;81.70;;;;;;;-7.72;76.73;98504.31;106361;1323;22300;-60
2021/12/23 03:33:16;;;;;;;85.90;76.60;;;;;;;-7.82;76.12;98503.79;106358;1323;23100;-62
2021/12/23 03:35:45;;;;;;;122.10;94.00;;;;;;;-7.97;76.09;98497.66;106291;1323;22476;-59
2021/12/23 03:38:15;;;;;;;106.70;89.50;;;;;;;-8.07;76.50;98493.27;106333;1323;22296;-60
2021/12/23 03:40:44;;;;;;;78.80;70.60;;;;;;;-8.10;76.68;98489.47;106268;1323;23306;-60
2021/12/23 03:43:12;;;;;;;73.00;65.30;;;;;;;-8.17;76.21;98487.74;106347;1322;22989;-60
2021/12/23 03:45:44;;;;;;;75.30;67.40;;;;;;;-8.21;76.24;98484.84;106326;1323;22434;-60
2021/12/23 03:48:14;;;;;;;134.10;103.60;;;;;;;-8.24;76.16;98483.38;106362;1323;22365;-60
2021/12/23 03:50:43;;;;;;;82.50;69.50;;;;;;;-8.23;76.11;98485.23;106332;1323;22477;-60
2021/12/23 03:53:12;;;;;;;94.00;76.80;;;;;;;-8.24;75.97;98479.77;106318;1323;22580;-61
2021/12/23 03:55:41;;;;;;;103.60;77.70;;;;;;;-8.22;76.22;98471.54;106335;1323;22572;-60
2021/12/23 03:58:09;;;;;;;115.80;79.70;;;;;;;-8.18;76.58;98472.16;106236;1323;22412;-60
2021/12/23 04:00:37;;;;;;;118.40;77.80;;;;;;;-8.14;76.21;98473.52;106307;1322;22461;-58
2021/12/23 04:03:05;;;;;;;112.00;77.00;;;;;;;-8.12;76.49;98473.81;106323;1323;22403;-59
2021/12/23 04:05:34;;;;;;;99.70;72.20;;;;;;;-8.11;76.32;98476.95;106277;1323;22466;-60
2021/12/23 04:08:02;;;;;;;89.40;70.60;;;;;;;-8.07;76.74;98471.66;106350;1323;23155;-60
2021/12/23 04:10:31;;;;;;;81.60;69.40;;;;;;;-8.00;76.49;98471.74;106275;1323;22493;-61
2021/12/23 04:12:59;;;;;;;90.20;70.10;;;;;;;-7.93;76.70;98464.89;106235;1323;23192;-60
2021/12/23 04:15:27;;;;;;;110.00;82.30;;;;;;;-7.76;77.11;98467.29;106332;1323;22557;-59
2021/12/23 04:17:55;;;;;;;102.90;80.60;;;;;;;-7.61;77.30;98463.17;106320;1323;22428;-60
2021/12/23 04:20:31;;;;;;;85.80;72.50;;;;;;;-7.49;76.98;98461.34;106317;1323;23130;-59
2021/12/23 04:23:00;;;;;;;80.80;72.00;;;;;;;-7.51;76.28;98459.24;106377;1323;22760;-60
2021/12/23 04:25:28;;;;;;;97.30;74.90;;;;;;;-7.60;75.96;98459.02;106356;1323;22473;-60
2021/12/23 04:28:01;;;;;;;84.00;74.30;;;;;;;-7.69;75.99;98453.06;106337;1323;23795;-60
2021/12/23 04:30:29;;;;;;;120.30;86.40;;;;;;;-7.77;76.17;98459.65;106329;1323;22501;-60
2021/12/23 04:32:58;;;;;;;108.10;84.80;;;;;;;-7.83;76.21;98453.92;106247;1323;22414;-59
2021/12/23 04:35:26;;;;;;;103.30;81.30;;;;;;;-7.91;76.18;98448.84;106327;1323;22433;-60
2021/12/23 04:37:54;;;;;;;125.20;90.50;;;;;;;-7.98;76.16;98443.30;106305;1322;23111;-60
2021/12/23 04:40:23;;;;;;;126.70;96.90;;;;;;;-8.05;76.26;98442.54;106316;1322;22534;-60
2021/12/23 04:42:51;;;;;;;159.50;111.00;;;;;;;-8.09;76.56;98442.30;106349;1322;22440;-60
2021/12/23 04:45:20;;;;;;;144.50;97.60;;;;;;;-8.14;76.42;98440.75;106313;1323;22411;-61
2021/12/23 04:47:48;;;;;;;103.00;80.60;;;;;;;-8.15;76.34;98436.31;106263;1323;22516;-60
2021/12/23 04:50:16;;;;;;;87.80;74.10;;;;;;;-8.18;75.89;98429.16;106333;1323;23236;-60
2021/12/23 04:52:45;;;;;;;85.00;72.70;;;;;;;-8.21;76.22;98415.53;106233;1323;22603;-61
2021/12/23 04:55:15;;;;;;;93.10;78.50;;;;;;;-8.23;75.92;98412.95;106330;1323;22268;-60
2021/12/23 04:57:44;;;;;;;81.00;72.50;;;;;;;-8.22;76.28;98415.64;106331;1323;22425;-61
2021/12/23 05:00:20;;;;;;;89.50;73.00;;;;;;;-8.18;76.06;98411.57;106338;1322;22342;-60
2021/12/23 05:02:48;;;;;;;85.70;75.70;;;;;;;-8.16;76.14;98404.91;106333;1323;22391;-60
2021/12/23 05:05:17;;;;;;;82.80;71.80;;;;;;;-8.12;76.60;98400.24;106261;1323;23132;-61
2021/12/23 05:07:45;;;;;;;79.40;69.90;;;;;;;-8.04;76.36;98398.83;106350;1323;22587;-61
2021/12/23 05:10:14;;;;;;;77.20;69.00;;;;;;;-7.98;76.48;98399.59;106352;1323;22600;-61
2021/12/23 05:12:45;;;;;;;126.40;85.20;;;;;;;-7.88;76.91;98396.52;106340;1323;22546;-61
2021/12/23 05:15:18;;;;;;;87.80;72.90;;;;;;;-7.81;76.25;98396.63;106326;1323;23230;-61
2021/12/23 05:17:47;;;;;;;101.50;77.80;;;;;;;-7.78;76.41;98393.95;106317;1323;22460;-62
2021/12/23 05:20:17;;;;;;;124.00;85.00;;;;;;;-7.74;76.24;98392.09;106296;1322;22294;-61
2021/12/23 05:22:47;;;;;;;96.80;81.80;;;;;;;-7.77;76.49;98388.01;106306;1322;23027;-61
2021/12/23 05:25:16;;;;;;;89.80;80.70;;;;;;;-7.72;76.94;98385.34;106336;1323;23128;-61
2021/12/23 05:27:45;;;;;;;90.70;81.10;;;;;;;-7.65;77.28;98382.21;106322;1323;22604;-61
2021/12/23 05:30:16;;;;;;;83.60;74.70;;;;;;;-7.59;77.28;98374.19;106381;1323;23383;-60
2021/12/23 05:32:45;;;;;;;86.20;77.20;;;;;;;-7.58;76.82;98373.15;106343;1323;22427;-61
2021/12/23 05:35:15;;;;;;;90.50;78.70;;;;;;;-7.60;76.78;98365.70;106343;1322;23264;-60
2021/12/23 05:37:44;;;;;;;119.20;92.40;;;;;;;-7.63;76.54;98367.80;106337;1322;22404;-60
2021/12/23 05:40:15;;;;;;;107.30;86.50;;;;;;;-7.71;76.81;98364.14;106304;1323;22498;-61
2021/12/23 05:42:44;;;;;;;103.10;85.60;;;;;;;-7.80;76.42;98364.77;106354;1323;22597;-60
2021/12/23 05:45:14;;;;;;;96.50;80.50;;;;;;;-7.90;76.70;98356.34;106350;1323;23322;-60
2021/12/23 05:47:43;;;;;;;87.20;77.90;;;;;;;-7.95;76.83;98353.00;106237;1323;22404;-60
2021/12/23 05:50:13;;;;;;;79.50;67.60;;;;;;;-7.91;76.62;98354.31;106314;1323;22520;-60
2021/12/23 05:52:42;;;;;;;78.50;68.10;;;;;;;-7.85;76.83;98356.25;106281;1323;22284;-60
2021/12/23 05:55:12;;;;;;;67.10;60.10;;;;;;;-7.76;76.76;98357.02;106342;1323;22292;-60
2021/12/23 05:57:41;;;;;;;65.80;59.10;;;;;;;-7.69;76.84;98354.39;106316;1323;22572;-60
2021/12/23 06:00:17;;;;;;;63.60;57.00;;;;;;;-7.69;76.42;98355.08;106299;1323;22577;-60
2021/12/23 06:02:46;;;;;;;68.00;61.20;;;;;;;-7.64;76.61;98353.92;106247;1322;22490;-61
2021/12/23 06:05:14;;;;;;;83.90;74.80;;;;;;;-7.52;77.04;98352.98;106318;1322;22463;-60
2021/12/23 06:07:43;;;;;;;143.40;112.30;;;;;;;-7.38;77.07;98349.84;106343;1323;23147;-60
2021/12/23 06:10:12;;;;;;;80.50;72.20;;;;;;;-7.28;76.99;98349.21;106283;1322;23038;-60
2021/12/23 06:12:41;;;;;;;77.40;69.20;;;;;;;-7.22;76.37;98354.23;106161;1317;138106;-60
2021/12/23 06:15:09;;;;;;;85.20;75.20;;;;;;;-7.18;76.47;98356.33;106288;1323;22558;-59
2021/12/23 06:17:38;;;;;;;93.00;78.00;;;;;;;-7.20;76.67;98352.11;106327;1323;22482;-60
2021/12/23 06:20:08;;;;;;;83.00;73.20;;;;;;;-7.19;76.51;98349.23;106346;1323;23142;-60
2021/12/23 06:22:37;;;;;;;85.80;76.60;;;;;;;-7.16;76.93;98346.61;106332;1323;22540;-60
2021/12/23 06:25:08;;;;;;;79.00;71.00;;;;;;;-7.18;76.37;98345.58;106281;1323;22564;-60
2021/12/23 06:27:37;;;;;;;120.90;98.80;;;;;;;-7.32;75.93;98342.30;106347;1323;23195;-58
2021/12/23 06:30:42;;;;;;;79.90;72.10;;;;;;;-7.41;76.29;98337.72;106325;1323;23150;-60
2021/12/23 06:33:02;;;;;;;107.10;94.00;;;;;;;-7.49;76.35;98332.85;106261;1324;22589;-61
2021/12/23 06:35:31;;;;;;;93.50;83.50;;;;;;;-7.52;76.85;98319.58;106286;1323;22503;-60
2021/12/23 06:38:05;;;;;;;82.70;74.20;;;;;;;-7.53;76.73;98317.44;106227;1323;22920;-60
2021/12/23 06:40:33;;;;;;;76.30;68.40;;;;;;;-7.60;76.00;98320.36;106363;1322;22683;-60
2021/12/23 06:43:02;;;;;;;65.20;59.00;;;;;;;-7.68;76.12;98320.44;106318;1323;22421;-60
2021/12/23 06:45:30;;;;;;;64.20;57.70;;;;;;;-7.74;75.93;98322.42;106363;1323;23277;-61
2021/12/23 06:47:58;;;;;;;70.80;63.90;;;;;;;-7.79;75.96;98322.84;106324;1323;23302;-61
2021/12/23 06:50:26;;;;;;;75.50;68.00;;;;;;;-7.80;75.97;98320.29;106322;1322;22253;-60
2021/12/23 06:52:55;;;;;;;82.20;73.30;;;;;;;-7.73;76.26;98316.73;106319;1322;22475;-60
2021/12/23 06:55:23;;;;;;;72.40;64.70;;;;;;;-7.64;76.52;98314.55;106301;1323;23232;-60
2021/12/23 06:57:55;;;;;;;69.40;62.50;;;;;;;-7.56;76.49;98315.16;106296;1323;22395;-60
2021/12/23 07:00:27;;;;;;;71.30;63.90;;;;;;;-7.41;76.55;98317.69;106307;1323;22508;-60
2021/12/23 07:02:56;;;;;;;81.20;71.70;;;;;;;-7.29;76.75;98316.66;106270;1323;22366;-60
2021/12/23 07:05:25;;;;;;;95.70;75.50;;;;;;;-7.17;76.71;98321.62;106314;1320;22399;-60
2021/12/23 07:08:03;;;;;;;93.20;74.60;;;;;;;-7.07;76.52;98318.33;106326;1323;22582;-60
2021/12/23 07:10:33;;;;;;;112.40;79.70;;;;;;;-7.00;76.28;98311.04;106323;1323;22569;-60
2021/12/23 07:13:01;;;;;;;116.60;83.20;;;;;;;-6.88;76.81;98310.91;106286;1323;22597;-61
2021/12/23 07:15:30;;;;;;;141.80;89.50;;;;;;;-6.77;76.50;98306.19;106326;1323;23291;-61
2021/12/23 07:17:59;;;;;;;161.90;97.00;;;;;;;-6.76;76.51;98301.49;106238;1323;22465;-61
2021/12/23 07:20:29;;;;;;;165.90;110.60;;;;;;;-6.78;76.39;98301.23;106282;1323;23112;-61
2021/12/23 07:22:58;;;;;;;234.00;143.80;;;;;;;-6.78;76.28;98298.30;106310;1323;22495;-60
2021/12/23 07:25:27;;;;;;;225.40;148.10;;;;;;;-6.80;76.40;98293.40;106303;1323;23335;-61
2021/12/23 07:27:55;;;;;;;236.90;141.50;;;;;;;-6.79;76.67;98293.46;106321;1323;22293;-60
2021/12/23 07:30:24;;;;;;;231.10;141.20;;;;;;;-6.82;76.09;98294.02;106328;1323;23145;-61
2021/12/23 07:32:53;;;;;;;240.90;149.90;;;;;;;-6.90;75.75;98288.81;106289;1323;22486;-60
2021/12/23 07:35:22;;;;;;;215.10;133.70;;;;;;;-6.99;75.95;98289.20;106338;1323;22364;-61
2021/12/23 07:37:50;;;;;;;195.40;126.70;;;;;;;-7.06;76.27;98284.14;106327;1323;23013;-61
2021/12/23 07:40:18;;;;;;;175.70;110.70;;;;;;;-7.07;76.08;98284.67;106318;1323;23174;-61
2021/12/23 07:42:55;;;;;;;151.30;93.90;;;;;;;-7.09;76.35;98285.55;106329;1323;22464;-60
2021/12/23 07:45:29;;;;;;;156.00;94.70;;;;;;;-7.06;76.37;98284.40;106316;1323;22215;-61
2021/12/23 07:47:57;;;;;;;175.60;113.10;;;;;;;-6.98;76.53;98284.42;106291;1323;22477;-61
2021/12/23 07:50:25;;;;;;;206.40;125.80;;;;;;;-6.84;76.48;98285.65;106333;1323;22304;-60
2021/12/23 07:52:54;;;;;;;213.40;130.60;;;;;;;-6.72;76.53;98285.55;106326;1323;22469;-61
2021/12/23 07:55:23;;;;;;;201.30;121.70;;;;;;;-6.62;76.53;98283.92;106313;1323;22438;-61
2021/12/23 07:57:51;;;;;;;232.50;141.60;;;;;;;-6.49;76.75;98276.90;106316;1323;23263;-61
2021/12/23 08:00:20;;;;;;;216.70;133.20;;;;;;;-6.35;76.77;98276.05;106316;1323;22545;-59
2021/12/23 08:02:49;;;;;;;229.10;141.90;;;;;;;-6.17;76.67;98279.58;106302;1323;23043;-61
2021/12/23 08:05:17;;;;;;;239.10;150.40;;;;;;;-5.98;77.09;98279.69;106312;1322;23217;-61
2021/12/23 08:07:45;;;;;;;249.70;164.20;;;;;;;-5.80;76.98;98276.49;106302;1323;22407;-61
2021/12/23 08:10:14;;;;;;;255.30;166.10;;;;;;;-5.68;76.79;98271.90;106297;1323;22694;-60
2021/12/23 08:12:42;;;;;;;235.70;156.60;;;;;;;-5.57;76.97;98275.45;106331;1323;22377;-61
2021/12/23 08:15:10;;;;;;;239.90;160.80;;;;;;;-5.46;77.15;98269.16;106325;1322;22478;-61
2021/12/23 08:17:38;;;;;;;236.40;157.40;;;;;;;-5.34;77.10;98267.21;106327;1323;22491;-61
2021/12/23 08:20:14;;;;;;;210.90;141.10;;;;;;;-5.24;77.10;98261.16;106228;1323;22423;-61
2021/12/23 08:22:43;;;;;;;148.10;102.00;;;;;;;-5.15;77.15;98257.38;106326;1323;23132;-61
2021/12/23 08:25:12;;;;;;;126.90;92.40;;;;;;;-5.06;77.10;98257.64;106312;1323;22269;-61
2021/12/23 08:27:42;;;;;;;99.60;82.70;;;;;;;-5.00;76.94;98255.52;106288;1323;22484;-61
2021/12/23 08:30:12;;;;;;;96.60;81.30;;;;;;;-4.96;76.85;98254.13;106290;1323;22626;-61
2021/12/23 08:32:41;;;;;;;87.00;77.90;;;;;;;-4.88;76.97;98250.34;106296;1323;22456;-62
2021/12/23 08:35:09;;;;;;;86.60;77.60;;;;;;;-4.82;76.83;98245.75;106301;1322;23309;-61
2021/12/23 08:37:46;;;;;;;80.10;72.10;;;;;;;-4.81;76.57;98238.27;106328;1323;22290;-60
2021/12/23 08:40:18;;;;;;;88.70;79.10;;;;;;;-4.79;76.51;98230.31;106321;1322;22683;-61
2021/12/23 08:42:47;;;;;;;101.00;85.60;;;;;;;-4.75;76.65;98224.80;106322;1323;22584;-61
2021/12/23 08:45:17;;;;;;;132.00;96.80;;;;;;;-4.73;76.61;98222.79;106304;1323;22471;-61
2021/12/23 08:47:45;;;;;;;136.80;92.10;;;;;;;-4.73;76.53;98212.20;106293;1323;22501;-61
2021/12/23 08:50:15;;;;;;;143.20;93.40;;;;;;;-4.70;76.52;98216.73;106324;1323;23043;-61
2021/12/23 08:52:43;;;;;;;135.60;94.00;;;;;;;-4.65;76.51;98214.70;106287;1323;22604;-60
2021/12/23 08:55:12;;;;;;;168.30;115.40;;;;;;;-4.60;76.50;98218.02;106289;1323;22570;-61
2021/12/23 08:57:40;;;;;;;159.90;107.30;;;;;;;-4.51;76.66;98214.55;106318;1323;22330;-61
2021/12/23 09:00:12;;;;;;;150.30;103.60;;;;;;;-4.44;76.63;98212.56;106304;1323;22615;-61
2021/12/23 09:02:41;;;;;;;118.50;90.20;;;;;;;-4.38;76.80;98210.53;106319;1323;22478;-60
2021/12/23 09:05:09;;;;;;;126.30;91.60;;;;;;;-4.30;76.68;98204.36;106306;1323;22298;-60
2021/12/23 09:07:37;;;;;;;133.00;96.00;;;;;;;-4.24;76.69;98207.19;106306;1322;22269;-61
2021/12/23 09:10:07;;;;;;;111.20;89.00;;;;;;;-4.16;76.78;98208.27;106312;1323;22500;-61
2021/12/23 09:12:35;;;;;;;100.80;84.20;;;;;;;-4.10;76.56;98198.26;106310;1323;22422;-62
2021/12/23 09:15:05;;;;;;;109.30;86.40;;;;;;;-4.06;76.51;98189.85;106300;1323;22469;-61
2021/12/23 09:17:33;;;;;;;115.20;86.80;;;;;;;-4.00;76.64;98186.88;106300;1322;22389;-60
2021/12/23 09:20:03;;;;;;;88.10;78.50;;;;;;;-3.94;76.57;98174.73;106245;1323;23315;-59
2021/12/23 09:22:31;;;;;;;93.20;76.20;;;;;;;-3.89;76.52;98168.19;106324;1323;23416;-61
2021/12/23 09:25:06;;;;;;;82.80;71.80;;;;;;;-3.89;76.25;98158.98;106282;1323;22476;-61
2021/12/23 09:27:54;;;;;;;88.60;75.40;;;;;;;-3.80;76.23;98159.81;106305;1323;22454;-61
2021/12/23 09:33:10;;;;;;;85.90;76.50;;;;;;;-3.71;76.29;98136.58;106296;1323;22484;-60
2021/12/23 09:35:54;;;;;;;106.00;82.40;;;;;;;-3.64;76.36;98126.26;106293;1323;23281;-60
2021/12/23 09:38:27;;;;;;;88.70;78.40;;;;;;;-3.61;76.15;98128.05;106308;1323;22500;-60
2021/12/23 09:41:00;;;;;;;74.40;66.70;;;;;;;-3.59;76.30;98125.45;106285;1323;23177;-61
2021/12/23 09:43:30;;;;;;;73.30;65.70;;;;;;;-3.53;76.15;98133.55;106297;1323;22394;-61
2021/12/23 09:45:58;;;;;;;81.70;73.00;;;;;;;-3.54;75.98;98129.88;106257;1323;22475;-61
2021/12/23 09:48:28;;;;;;;73.90;66.30;;;;;;;-3.56;76.11;98114.34;106271;1323;22510;-61
2021/12/23 09:51:04;;;;;;;78.20;69.80;;;;;;;-3.57;75.88;98103.80;106156;1323;202069;-60
2021/12/23 09:53:34;;;;;;;90.90;73.70;;;;;;;-3.61;76.00;98105.11;106319;1323;22480;-61
2021/12/23 09:56:04;;;;;;;325.90;96.80;;;;;;;-3.60;76.06;98102.92;106306;1323;23242;-60
2021/12/23 09:58:32;;;;;;;260.80;89.40;;;;;;;-3.58;76.16;98098.66;106290;1323;22570;-61
2021/12/23 10:01:01;;;;;;;388.90;89.60;;;;;;;-3.55;76.11;98091.69;106289;1323;22499;-61
2021/12/23 10:03:30;;;;;;;94.90;67.40;;;;;;;-3.48;76.07;98094.36;106317;1322;22458;-61
2021/12/23 10:05:59;;;;;;;79.90;69.90;;;;;;;-3.44;75.95;98085.70;106303;1322;23335;-61
2021/12/23 10:08:28;;;;;;;84.20;71.50;;;;;;;-3.40;75.89;98078.19;106276;1323;23226;-61
2021/12/23 10:11:12;;;;;;;81.00;72.30;;;;;;;-3.37;75.88;98070.69;106285;1323;22430;-60
2021/12/23 10:31:59;;;;;;;169.80;81.50;;;;;;;-3.23;75.80;98032.27;106277;1323;22816;-62
2021/12/23 10:37:23;;;;;;;95.50;70.90;;;;;;;-3.17;75.78;98015.36;106293;1323;23372;-60
2021/12/23 10:40:12;;;;;;;72.20;64.50;;;;;;;-3.12;75.80;98001.41;106288;1323;22394;-60
2021/12/23 10:42:50;;;;;;;83.70;71.20;;;;;;;-3.02;75.62;97992.17;106323;1323;22583;-61
2021/12/23 10:45:18;;;;;;;102.00;80.00;;;;;;;-2.99;75.73;97986.80;106308;1323;22558;-61
2021/12/23 10:50:45;;;;;;;104.70;76.00;;;;;;;-2.94;75.62;97968.74;106298;1323;23004;-61
2021/12/23 10:53:37;;;;;;;110.60;79.90;;;;;;;-2.92;75.63;97962.23;106322;1323;22740;-62
2021/12/23 10:59:14;;;;;;;95.90;80.30;;;;;;;-2.96;75.57;97941.30;106304;1323;22499;-62
2021/12/23 11:02:22;;;;;;;105.10;82.00;;;;;;;-2.96;75.60;97933.59;106315;1323;22571;-62
2021/12/23 11:08:02;;;;;;;115.60;84.60;;;;;;;-2.95;75.60;97920.77;105710;1329;22790;-60
2021/12/23 11:28:00;;;;;;;117.90;90.70;;;;;;;-2.82;75.50;97878.62;105726;1325;23050;-60
2021/12/23 11:43:58;;;;;;;118.00;90.20;;;;;;;-2.63;75.44;97846.17;106279;1322;22423;-61
2021/12/23 11:46:41;;;;;;;106.30;90.10;;;;;;;-2.59;75.36;97839.13;106295;1323;22406;-61
2021/12/23 11:49:12;;;;;;;101.40;87.50;;;;;;;-2.57;75.33;97835.95;106308;1323;22339;-61
2021/12/23 11:54:23;;;;;;;82.60;74.10;;;;;;;-2.53;75.33;97830.14;106322;1323;23082;-61
2021/12/23 11:56:58;;;;;;;88.50;79.00;;;;;;;-2.55;75.13;97827.13;106317;1323;22514;-62
2021/12/23 11:59:26;;;;;;;83.00;74.70;;;;;;;-2.52;75.08;97826.23;106280;1323;23171;-61
2021/12/23 12:01:55;;;;;;;77.40;70.00;;;;;;;-2.54;74.98;97824.98;106277;1323;22287;-61
2021/12/23 12:04:37;;;;;;;73.80;65.70;;;;;;;-2.55;74.97;97824.08;106306;1322;22393;-61
2021/12/23 12:07:19;;;;;;;73.60;65.90;;;;;;;-2.58;75.00;97822.60;106137;1319;138089;-61
2021/12/23 12:10:05;;;;;;;83.50;69.10;;;;;;;-2.57;75.10;97820.52;106315;1317;22522;-61
2021/12/23 12:12:37;;;;;;;84.70;73.60;;;;;;;-2.53;74.84;97814.64;106278;1323;22388;-62
2021/12/23 12:15:37;;;;;;;90.40;79.60;;;;;;;-2.52;74.70;97808.34;106286;1323;22599;-62
2021/12/23 12:18:12;;;;;;;100.60;80.20;;;;;;;-2.49;74.87;97790.58;106267;1323;22856;-61
2021/12/23 12:20:46;;;;;;;92.70;78.20;;;;;;;-2.47;74.74;97779.57;106279;1322;23102;-60
2021/12/23 12:23:31;;;;;;;107.60;82.70;;;;;;;-2.54;74.66;97769.18;106268;1323;22569;-62
2021/12/23 12:26:26;;;;;;;100.40;82.50;;;;;;;-2.59;74.79;97769.77;106292;1323;22547;-63
2021/12/23 12:28:55;;;;;;;110.60;85.90;;;;;;;-2.60;74.87;97763.48;106144;1324;22670;-61
2021/12/23 12:31:28;;;;;;;122.60;90.30;;;;;;;-2.63;74.84;97760.20;106235;1324;23092;-60
2021/12/23 12:34:10;;;;;;;131.00;93.00;;;;;;;-2.63;75.01;97751.95;106287;1322;22707;-60